Terminal Aerodrome Forecast
Issued by NWS

Home | Current Version | Previous Version | Text Only | Print | Product List | Glossary On
Versions: 1 2 3 4 5 6 7 8 9 10 11 12 13 14 15 16 17 18 19 20 21 22 23 24 25 26 27 28 29 30 31
000
FTUS46 KMTR 010536
TAFSFO
TAF
KSFO 010536Z 0106/0212 26010G15KT P6SM FEW007 SCT012 OVC015
     FM011200 25008KT P6SM OVC008
     FM011500 25005KT P6SM FEW010 OVC015
     FM011830 27010KT P6SM FEW010 FEW150
     FM012100 28015G20KT P6SM FEW010 SCT200
     FM020300 26012KT P6SM OVC015
     FM020900 27010KT P6SM OVC015=

USA.gov is the U.S. government's official web portal to all federal, state and local government web resources and services.